Time;durP1;ratioP1;P1;durP2;ratioP2;P2;SDS_P1;SDS_P2;PMS_P1;PMS_P2;Temp;Humidity;BMP_temperature;BMP_pressure;BME280_temperature;BME280_humidity;BME280_pressure;Samples;Min_cycle;Max_cycle;Signal;HPM_P1;HPM_P2
2024/02/08 00:01:25;;;;;;;2.70;1.90;;;;;;;;;;5047457;28;20029;-59
2024/02/08 00:03:51;;;;;;;2.83;1.98;;;;;;;;;;5039975;28;20105;-59
2024/02/08 00:06:16;;;;;;;4.13;1.98;;;;;;;;;;5038657;28;20374;-59
2024/02/08 00:08:41;;;;;;;3.00;2.10;;;;;;;;;;5041531;28;20036;-60
2024/02/08 00:11:07;;;;;;;3.33;1.90;;;;;;;;;;5036983;28;20030;-62
2024/02/08 00:13:32;;;;;;;2.70;1.77;;;;;;;;;;5034502;28;20044;-65
2024/02/08 00:15:58;;;;;;;3.85;2.15;;;;;;;;;;5045563;28;20112;-61
2024/02/08 00:18:25;;;;;;;2.72;1.70;;;;;;;;;;5035286;28;20049;-60
2024/02/08 00:20:50;;;;;;;2.53;1.85;;;;;;;;;;5042978;28;20025;-60
2024/02/08 00:23:15;;;;;;;2.72;1.90;;;;;;;;;;5042684;28;20184;-59
2024/02/08 00:25:41;;;;;;;2.58;1.77;;;;;;;;;;5038543;28;20134;-61
2024/02/08 00:28:11;;;;;;;2.40;1.88;;;;;;;;;;5037738;28;20116;-59
2024/02/08 00:30:38;;;;;;;2.80;1.95;;;;;;;;;;5040574;28;20033;-61
2024/02/08 00:33:03;;;;;;;2.47;1.90;;;;;;;;;;5040687;28;20055;-60
2024/02/08 00:35:28;;;;;;;3.20;1.90;;;;;;;;;;5038019;28;20490;-61
2024/02/08 00:37:54;;;;;;;5.28;2.25;;;;;;;;;;5041161;28;20041;-63
2024/02/08 00:40:19;;;;;;;3.33;1.88;;;;;;;;;;5024267;28;20202;-62
2024/02/08 00:42:47;;;;;;;2.80;2.08;;;;;;;;;;5017636;28;20021;-63
2024/02/08 00:45:18;;;;;;;2.90;2.10;;;;;;;;;;5036407;28;21442;-64
2024/02/08 00:47:43;;;;;;;2.83;2.13;;;;;;;;;;5037152;28;20037;-62
2024/02/08 00:50:09;;;;;;;2.88;1.90;;;;;;;;;;5041362;28;20098;-65
2024/02/08 00:52:34;;;;;;;2.97;2.10;;;;;;;;;;5021963;28;20034;-64
2024/02/08 00:54:59;;;;;;;3.15;1.80;;;;;;;;;;5049352;28;20041;-64
2024/02/08 00:57:29;;;;;;;3.28;2.20;;;;;;;;;;5041479;28;20033;-62
2024/02/08 00:59:54;;;;;;;2.58;1.75;;;;;;;;;;5039065;28;20652;-63
2024/02/08 01:02:19;;;;;;;5.40;2.00;;;;;;;;;;5040192;28;20033;-59
2024/02/08 01:04:48;;;;;;;3.45;2.08;;;;;;;;;;5042749;28;20071;-62
2024/02/08 01:07:14;;;;;;;3.85;2.05;;;;;;;;;;5036171;28;20038;-63
2024/02/08 01:09:39;;;;;;;3.05;2.03;;;;;;;;;;5038609;28;20477;-63
2024/02/08 01:12:04;;;;;;;2.63;2.08;;;;;;;;;;5038868;28;20551;-61
2024/02/08 01:14:30;;;;;;;3.42;2.20;;;;;;;;;;5042649;28;20025;-64
2024/02/08 01:16:56;;;;;;;3.00;2.10;;;;;;;;;;5041318;28;20083;-62
2024/02/08 01:19:25;;;;;;;3.08;2.20;;;;;;;;;;5039559;28;20035;-60
2024/02/08 01:21:50;;;;;;;3.70;1.93;;;;;;;;;;5034892;28;20030;-65
2024/02/08 01:24:18;;;;;;;3.78;2.08;;;;;;;;;;5041654;28;20279;-63
2024/02/08 01:26:44;;;;;;;2.92;1.83;;;;;;;;;;5040319;28;20040;-63
2024/02/08 01:29:09;;;;;;;3.25;2.00;;;;;;;;;;5044589;28;20044;-60
2024/02/08 01:31:37;;;;;;;2.53;2.22;;;;;;;;;;5048854;28;20025;-64
2024/02/08 01:34:05;;;;;;;3.92;2.33;;;;;;;;;;5042526;28;20057;-61
2024/02/08 01:36:31;;;;;;;2.70;2.00;;;;;;;;;;5064690;28;20043;-61
2024/02/08 01:38:56;;;;;;;3.17;2.10;;;;;;;;;;5066046;28;20026;-59
2024/02/08 01:41:21;;;;;;;3.70;2.08;;;;;;;;;;5065426;28;20183;-64
2024/02/08 01:43:47;;;;;;;3.20;1.90;;;;;;;;;;5049243;28;20104;-59
2024/02/08 01:46:12;;;;;;;2.90;2.03;;;;;;;;;;5030075;28;20123;-60
2024/02/08 01:48:41;;;;;;;2.75;2.20;;;;;;;;;;5030989;28;20044;-63
2024/02/08 01:51:11;;;;;;;2.85;2.15;;;;;;;;;;5048222;28;20456;-61
2024/02/08 01:53:37;;;;;;;3.08;2.10;;;;;;;;;;5049509;28;20035;-64
2024/02/08 01:56:03;;;;;;;3.45;2.05;;;;;;;;;;5044138;28;20041;-60
2024/02/08 01:58:30;;;;;;;3.70;2.30;;;;;;;;;;5062667;28;20033;-59
2024/02/08 02:00:56;;;;;;;2.67;1.83;;;;;;;;;;5041196;28;20033;-66
2024/02/08 02:03:23;;;;;;;3.22;2.13;;;;;;;;;;5044569;28;20033;-62
2024/02/08 02:05:48;;;;;;;3.42;2.20;;;;;;;;;;5048203;28;20047;-62
2024/02/08 02:08:18;;;;;;;3.30;2.20;;;;;;;;;;5057254;28;20134;-59
2024/02/08 02:11:05;;;;;;;4.45;2.30;;;;;;;;;;5067038;28;20046;-60
2024/02/08 02:13:31;;;;;;;3.22;2.08;;;;;;;;;;5054740;28;20044;-60
2024/02/08 02:15:56;;;;;;;2.70;1.83;;;;;;;;;;5037227;28;20037;-60
2024/02/08 02:18:21;;;;;;;3.67;2.20;;;;;;;;;;5049844;28;20422;-64
2024/02/08 02:20:46;;;;;;;3.33;2.22;;;;;;;;;;5048935;28;20037;-65
2024/02/08 02:23:12;;;;;;;3.20;2.15;;;;;;;;;;5050175;28;20025;-61
2024/02/08 02:25:38;;;;;;;3.03;1.98;;;;;;;;;;5048693;28;20040;-64
2024/02/08 02:28:06;;;;;;;3.53;2.03;;;;;;;;;;5048237;28;20033;-63
2024/02/08 02:30:35;;;;;;;3.10;2.15;;;;;;;;;;5045415;28;20036;-66
2024/02/08 02:33:01;;;;;;;3.35;2.08;;;;;;;;;;5033560;28;20128;-67
2024/02/08 02:35:26;;;;;;;3.22;2.13;;;;;;;;;;5032943;28;20765;-68
2024/02/08 02:37:52;;;;;;;2.63;2.00;;;;;;;;;;5049753;28;20032;-62
2024/02/08 02:40:23;;;;;;;2.80;1.95;;;;;;;;;;5025754;28;20029;-68
2024/02/08 02:42:51;;;;;;;3.03;1.80;;;;;;;;;;5048282;28;20052;-59
2024/02/08 02:45:23;;;;;;;3.20;2.20;;;;;;;;;;5051383;28;20032;-60
2024/02/08 02:47:53;;;;;;;3.45;2.38;;;;;;;;;;5066250;28;20095;-58
2024/02/08 02:50:18;;;;;;;;;;;;;;;;;;5057595;28;20029;-61
2024/02/08 02:52:45;;;;;;;3.47;2.17;;;;;;;;;;5051393;28;19940;-59
2024/02/08 02:55:10;;;;;;;2.80;2.10;;;;;;;;;;5047537;28;20052;-60
2024/02/08 02:57:36;;;;;;;3.22;2.20;;;;;;;;;;5045609;28;20037;-62
2024/02/08 03:00:15;;;;;;;3.78;2.40;;;;;;;;;;5043840;28;20568;-59
2024/02/08 03:02:40;;;;;;;3.80;2.20;;;;;;;;;;5048372;28;20123;-64
2024/02/08 03:05:07;;;;;;;3.78;2.28;;;;;;;;;;5051203;28;20127;-59
2024/02/08 03:07:32;;;;;;;2.80;2.00;;;;;;;;;;5050894;28;20433;-58
2024/02/08 03:09:57;;;;;;;3.13;2.00;;;;;;;;;;5047167;28;20037;-64
2024/02/08 03:12:23;;;;;;;3.40;2.33;;;;;;;;;;5048268;28;20039;-65
2024/02/08 03:14:58;;;;;;;3.30;2.13;;;;;;;;;;5048743;28;20116;-66
2024/02/08 03:17:23;;;;;;;3.33;2.13;;;;;;;;;;5026556;28;20517;-67
2024/02/08 03:19:49;;;;;;;3.33;2.50;;;;;;;;;;5045531;28;20041;-66
2024/02/08 03:22:15;;;;;;;3.17;2.20;;;;;;;;;;5044929;28;20414;-60
2024/02/08 03:24:40;;;;;;;3.08;2.00;;;;;;;;;;5036690;28;20565;-62
2024/02/08 03:27:07;;;;;;;3.45;2.05;;;;;;;;;;5035854;28;20037;-59
2024/02/08 03:29:34;;;;;;;3.28;2.05;;;;;;;;;;5036233;28;20029;-62
2024/02/08 03:31:59;;;;;;;3.60;2.17;;;;;;;;;;5034851;28;20077;-60
2024/02/08 03:34:29;;;;;;;3.45;2.22;;;;;;;;;;5036666;28;20064;-61
2024/02/08 03:36:57;;;;;;;3.05;2.10;;;;;;;;;;5035799;28;20122;-58
2024/02/08 03:39:26;;;;;;;3.88;2.30;;;;;;;;;;5047495;28;20590;-58
2024/02/08 03:41:55;;;;;;;3.47;2.40;;;;;;;;;;5047655;28;20035;-64
2024/02/08 03:44:21;;;;;;;3.53;2.30;;;;;;;;;;5048240;28;20514;-59
2024/02/08 03:46:49;;;;;;;3.92;2.05;;;;;;;;;;5051193;28;20059;-66
2024/02/08 03:49:14;;;;;;;3.70;2.05;;;;;;;;;;5049781;28;20490;-65
2024/02/08 03:51:40;;;;;;;3.47;2.25;;;;;;;;;;5046413;28;20033;-66
2024/02/08 03:54:08;;;;;;;3.28;2.10;;;;;;;;;;5044810;28;20040;-58
2024/02/08 03:56:36;;;;;;;4.70;2.65;;;;;;;;;;5042263;28;20044;-61
2024/02/08 03:59:11;;;;;;;3.80;2.28;;;;;;;;;;5046318;28;20025;-59
2024/02/08 04:01:37;;;;;;;3.38;2.20;;;;;;;;;;5054675;28;20044;-59
2024/02/08 04:04:12;;;;;;;3.20;2.25;;;;;;;;;;5065633;28;20032;-60
2024/02/08 04:07:00;;;;;;;3.00;2.17;;;;;;;;;;5061581;28;20048;-61
2024/02/08 04:09:36;;;;;;;3.20;2.17;;;;;;;;;;5051099;28;20112;-58
2024/02/08 04:55:49;;;;;;;3.03;2.30;;;;;;;;;;5035504;28;20506;-60
2024/02/08 04:58:15;;;;;;;3.92;2.13;;;;;;;;;;5037721;28;20053;-59
2024/02/08 05:00:41;;;;;;;3.53;2.10;;;;;;;;;;5037879;28;20467;-61
2024/02/08 05:03:06;;;;;;;3.42;2.50;;;;;;;;;;5038529;28;20028;-60
2024/02/08 05:05:32;;;;;;;3.58;2.40;;;;;;;;;;5037563;28;20465;-59
2024/02/08 05:08:00;;;;;;;3.17;2.20;;;;;;;;;;5018168;28;20029;-59
2024/02/08 05:10:28;;;;;;;3.80;2.10;;;;;;;;;;5039417;28;20522;-62
2024/02/08 05:12:53;;;;;;;4.57;2.38;;;;;;;;;;5038065;28;20083;-61
2024/02/08 05:15:18;;;;;;;4.28;2.15;;;;;;;;;;5035252;28;20515;-59
2024/02/08 05:17:43;;;;;;;4.20;2.28;;;;;;;;;;5037486;28;20112;-60
2024/02/08 05:20:11;;;;;;;4.65;2.10;;;;;;;;;;5036776;28;20044;-61
2024/02/08 05:22:38;;;;;;;3.50;2.30;;;;;;;;;;5037674;28;20426;-63
2024/02/08 05:25:10;;;;;;;3.92;2.20;;;;;;;;;;5036021;28;20432;-62
2024/02/08 05:27:35;;;;;;;3.70;2.42;;;;;;;;;;5034159;28;20071;-60
2024/02/08 05:30:01;;;;;;;3.83;2.22;;;;;;;;;;5038107;28;20060;-59
2024/02/08 05:32:27;;;;;;;3.55;2.35;;;;;;;;;;5038923;28;20033;-63
2024/02/08 05:34:52;;;;;;;3.50;2.38;;;;;;;;;;5034221;28;20037;-66
2024/02/08 05:37:18;;;;;;;2.67;1.95;;;;;;;;;;5021949;28;20106;-64
2024/02/08 05:39:46;;;;;;;3.60;2.30;;;;;;;;;;5038460;28;20040;-61
2024/02/08 05:42:14;;;;;;;3.88;2.05;;;;;;;;;;5037487;28;20037;-64
2024/02/08 05:44:40;;;;;;;3.83;2.33;;;;;;;;;;5035475;28;20433;-60
2024/02/08 05:47:08;;;;;;;2.83;2.10;;;;;;;;;;5037402;28;20049;-60
2024/02/08 05:49:33;;;;;;;3.35;2.42;;;;;;;;;;5036594;28;20075;-61
2024/02/08 05:52:05;;;;;;;3.33;2.30;;;;;;;;;;5038236;28;20506;-59
2024/02/08 05:54:36;;;;;;;3.40;2.15;;;;;;;;;;5035818;28;20037;-61
2024/02/08 05:57:03;;;;;;;3.03;2.03;;;;;;;;;;5018906;28;20049;-59
2024/02/08 05:59:29;;;;;;;3.15;2.17;;;;;;;;;;5036496;28;20029;-60
2024/02/08 06:01:58;;;;;;;2.97;2.30;;;;;;;;;;5037436;28;20039;-59
2024/02/08 06:04:34;;;;;;;4.15;2.40;;;;;;;;;;5037946;28;20040;-64
2024/02/08 06:07:05;;;;;;;3.58;2.42;;;;;;;;;;5036992;28;20064;-62
2024/02/08 06:12:16;;;;;;;3.55;2.25;;;;;;;;;;5036245;28;20142;-60
2024/02/08 06:14:42;;;;;;;4.80;2.50;;;;;;;;;;5035910;28;20045;-63
2024/02/08 06:17:08;;;;;;;3.67;2.38;;;;;;;;;;5036100;28;20044;-60
2024/02/08 06:19:50;;;;;;;3.88;2.05;;;;;;;;;;5036002;28;20178;-60
2024/02/08 06:22:22;;;;;;;3.42;2.33;;;;;;;;;;5037020;28;20040;-61
2024/02/08 06:24:54;;;;;;;3.03;2.20;;;;;;;;;;5037112;28;20098;-60
2024/02/08 06:27:25;;;;;;;3.83;2.22;;;;;;;;;;5034122;28;20624;-59
2024/02/08 06:29:51;;;;;;;2.95;2.00;;;;;;;;;;5020512;28;20038;-59
2024/02/08 06:35:11;;;;;;;7.30;2.63;;;;;;;;;;5032612;28;20035;-62
2024/02/08 06:37:56;;;;;;;3.45;2.20;;;;;;;;;;5032862;28;20116;-61
2024/02/08 06:40:21;;;;;;;3.83;2.33;;;;;;;;;;5033560;28;20038;-60
2024/02/08 07:37:25;;;;;;;5.32;2.58;;;;;;;;;;5033635;28;20132;-59
2024/02/08 07:39:54;;;;;;;4.45;2.70;;;;;;;;;;5036261;28;20116;-59
2024/02/08 07:42:41;;;;;;;5.68;3.00;;;;;;;;;;5037571;28;20139;-59
2024/02/08 07:45:12;;;;;;;4.70;2.70;;;;;;;;;;5034672;28;20737;-58
2024/02/08 07:47:38;;;;;;;3.67;2.60;;;;;;;;;;5035452;28;20046;-59
2024/02/08 07:50:08;;;;;;;4.10;2.63;;;;;;;;;;5034396;28;20656;-59
2024/02/08 07:52:45;;;;;;;4.03;2.88;;;;;;;;;;5034553;28;20072;-59
2024/02/08 07:55:20;;;;;;;4.10;2.38;;;;;;;;;;5035849;28;20422;-58
2024/02/08 07:57:51;;;;;;;3.85;2.50;;;;;;;;;;5037067;28;20121;-59
2024/02/08 08:03:08;;;;;;;3.47;2.35;;;;;;;;;;5038815;28;20098;-58
2024/02/08 08:05:41;;;;;;;7.07;2.80;;;;;;;;;;5040923;28;20052;-60
2024/02/08 08:08:36;;;;;;;4.47;2.95;;;;;;;;;;5037870;28;20045;-59
2024/02/08 08:11:02;;;;;;;4.28;2.88;;;;;;;;;;5038059;28;20025;-59
2024/02/08 08:18:58;;;;;;;5.00;3.03;;;;;;;;;;5038095;28;20033;-63
2024/02/08 08:21:27;;;;;;;4.03;3.08;;;;;;;;;;5037650;28;20029;-60
2024/02/08 08:24:00;;;;;;;4.03;3.00;;;;;;;;;;5037238;28;20069;-59
2024/02/08 08:26:37;;;;;;;4.13;3.00;;;;;;;;;;5040337;28;20187;-59
2024/02/08 08:29:04;;;;;;;4.63;3.10;;;;;;;;;;5038097;28;20033;-59
2024/02/08 08:31:37;;;;;;;4.72;3.03;;;;;;;;;;5038820;28;20049;-59
2024/02/08 08:36:58;;;;;;;5.93;3.47;;;;;;;;;;5019448;28;20545;-59
2024/02/08 08:42:16;;;;;;;5.88;3.50;;;;;;;;;;5063755;28;20555;-60
2024/02/08 08:44:48;;;;;;;5.10;3.40;;;;;;;;;;5052255;28;20040;-59
2024/02/08 08:47:14;;;;;;;5.03;3.65;;;;;;;;;;5053311;28;20106;-59
2024/02/08 08:49:39;;;;;;;5.22;3.35;;;;;;;;;;5047135;28;20025;-59
2024/02/08 08:52:06;;;;;;;4.93;3.55;;;;;;;;;;5052183;28;20050;-59
2024/02/08 08:54:36;;;;;;;6.53;3.53;;;;;;;;;;5046351;28;20033;-60
2024/02/08 08:57:06;;;;;;;5.57;4.03;;;;;;;;;;5048181;28;20387;-59
2024/02/08 08:59:32;;;;;;;5.18;3.40;;;;;;;;;;5050586;28;20095;-61
2024/02/08 09:02:00;;;;;;;5.15;3.42;;;;;;;;;;5052399;28;20055;-61
2024/02/08 09:04:25;;;;;;;6.07;3.67;;;;;;;;;;5037472;28;20531;-61
2024/02/08 09:06:53;;;;;;;5.93;4.03;;;;;;;;;;5047024;28;20140;-60
2024/02/08 09:09:28;;;;;;;7.22;3.55;;;;;;;;;;5051691;28;20033;-59
2024/02/08 09:12:00;;;;;;;5.97;3.80;;;;;;;;;;5053506;28;20029;-60
2024/02/08 09:14:30;;;;;;;5.95;3.88;;;;;;;;;;5049286;28;20021;-59
2024/02/08 09:16:57;;;;;;;;;;;;;;;;;;5052600;28;20053;-60
2024/02/08 09:19:27;;;;;;;4.97;3.78;;;;;;;;;;5068523;28;20343;-61
2024/02/08 09:21:53;;;;;;;6.75;3.38;;;;;;;;;;5042628;28;20037;-60
2024/02/08 09:24:18;;;;;;;6.03;3.47;;;;;;;;;;5048466;28;20029;-60
2024/02/08 09:26:56;;;;;;;6.47;3.50;;;;;;;;;;5048439;28;20045;-61
2024/02/08 09:29:24;;;;;;;4.18;3.20;;;;;;;;;;5048170;28;20037;-60
2024/02/08 09:31:59;;;;;;;4.22;3.22;;;;;;;;;;5049568;28;20564;-60
2024/02/08 09:34:36;;;;;;;6.65;3.90;;;;;;;;;;5048785;28;20033;-60
2024/02/08 09:37:03;;;;;;;5.03;3.10;;;;;;;;;;5048641;28;20037;-60
2024/02/08 09:39:53;;;;;;;6.07;3.50;;;;;;;;;;5050932;28;20037;-60
2024/02/08 09:42:15;;;;;;;6.35;3.95;;;;;;;;;;5058071;28;20041;-59
2024/02/08 09:44:49;;;;;;;5.47;3.40;;;;;;;;;;5052105;28;20047;-60
2024/02/08 09:47:25;;;;;;;5.43;3.42;;;;;;;;;;5022832;28;20083;-60
2024/02/08 09:50:00;;;;;;;5.57;3.15;;;;;;;;;;5040230;28;20032;-60
2024/02/08 09:52:30;;;;;;;5.75;3.85;;;;;;;;;;5048715;28;20044;-60
2024/02/08 09:55:06;;;;;;;5.75;3.60;;;;;;;;;;5030983;28;20048;-60
2024/02/08 09:57:40;;;;;;;4.97;3.30;;;;;;;;;;5049597;28;20120;-60
2024/02/08 10:00:34;;;;;;;5.20;3.20;;;;;;;;;;5031684;28;20085;-61
2024/02/08 10:03:03;;;;;;;4.45;3.35;;;;;;;;;;5048199;28;20526;-61
2024/02/08 10:05:51;;;;;;;4.93;3.60;;;;;;;;;;5064636;28;20029;-60
2024/02/08 10:08:27;;;;;;;5.05;3.08;;;;;;;;;;5033679;28;20037;-61
2024/02/08 10:11:35;;;;;;;4.82;3.33;;;;;;;;;;5048743;28;20025;-60
2024/02/08 10:14:01;;;;;;;5.32;3.70;;;;;;;;;;5045434;28;20041;-60
2024/02/08 10:16:41;;;;;;;4.53;3.30;;;;;;;;;;5033275;28;20078;-60
2024/02/08 10:19:23;;;;;;;7.22;3.13;;;;;;;;;;5045720;28;20526;-60
2024/02/08 10:21:56;;;;;;;4.80;3.28;;;;;;;;;;5049372;28;20454;-60
2024/02/08 10:27:06;;;;;;;7.20;3.45;;;;;;;;;;5033425;28;20097;-60
2024/02/08 10:29:32;;;;;;;5.32;3.20;;;;;;;;;;5034693;28;20048;-59
2024/02/08 10:32:00;;;;;;;4.90;3.28;;;;;;;;;;5033527;28;20029;-60
2024/02/08 10:34:33;;;;;;;5.00;3.22;;;;;;;;;;5035371;28;20779;-60
2024/02/08 10:36:59;;;;;;;4.40;3.20;;;;;;;;;;5034822;28;20033;-59
2024/02/08 10:39:24;;;;;;;4.57;3.17;;;;;;;;;;5034056;28;20099;-60
2024/02/08 10:44:24;;;;;;;5.28;3.50;;;;;;;;;;5034552;28;20576;-59
2024/02/08 10:46:49;;;;;;;5.18;3.28;;;;;;;;;;5031870;28;20046;-62
2024/02/08 10:49:14;;;;;;;6.13;3.50;;;;;;;;;;5034941;28;20022;-60
2024/02/08 10:51:43;;;;;;;5.40;3.05;;;;;;;;;;5035438;28;20037;-61
2024/02/08 10:54:14;;;;;;;4.50;3.47;;;;;;;;;;5033244;28;20028;-61
2024/02/08 10:56:48;;;;;;;5.88;3.42;;;;;;;;;;5038632;28;20503;-60
2024/02/08 10:59:14;;;;;;;5.47;2.97;;;;;;;;;;5036757;28;20052;-59
2024/02/08 11:04:40;;;;;;;5.13;3.17;;;;;;;;;;5021351;28;20032;-60
2024/02/08 11:07:18;;;;;;;4.88;3.20;;;;;;;;;;5033373;28;20530;-60
2024/02/08 11:09:46;;;;;;;4.07;3.10;;;;;;;;;;5035943;28;20060;-59
2024/02/08 11:12:21;;;;;;;4.72;2.90;;;;;;;;;;5032897;28;20041;-61
2024/02/08 11:15:13;;;;;;;4.05;2.60;;;;;;;;;;5020911;28;20039;-60
2024/02/08 11:17:38;;;;;;;5.70;3.35;;;;;;;;;;5034167;28;20052;-60
2024/02/08 11:20:05;;;;;;;6.07;3.22;;;;;;;;;;5032611;28;20120;-60
2024/02/08 11:22:40;;;;;;;4.00;2.83;;;;;;;;;;5036035;28;20025;-60
2024/02/08 11:25:36;;;;;;;4.85;3.10;;;;;;;;;;5034442;28;20033;-60
2024/02/08 11:28:11;;;;;;;4.45;3.25;;;;;;;;;;5035393;28;20128;-61
2024/02/08 11:30:39;;;;;;;4.30;2.80;;;;;;;;;;5036741;28;20037;-60
2024/02/08 11:33:05;;;;;;;3.60;2.60;;;;;;;;;;5039747;28;20104;-62
2024/02/08 11:35:35;;;;;;;4.45;2.90;;;;;;;;;;5042084;28;20068;-60
2024/02/08 11:38:00;;;;;;;;;;;;;;;;;;5040884;28;20120;-59
2024/02/08 11:40:28;;;;;;;5.37;2.90;;;;;;;;;;5038732;28;20008;-60
2024/02/08 11:42:59;;;;;;;4.10;2.85;;;;;;;;;;5040996;28;20040;-60
2024/02/08 11:45:24;;;;;;;6.05;2.70;;;;;;;;;;5043379;28;20037;-60
2024/02/08 11:47:50;;;;;;;3.95;2.85;;;;;;;;;;5041924;28;20051;-61
2024/02/08 11:50:19;;;;;;;4.03;3.00;;;;;;;;;;5037133;28;20052;-60
2024/02/08 11:52:54;;;;;;;4.15;2.92;;;;;;;;;;5038558;28;20603;-58
2024/02/08 11:55:23;;;;;;;3.90;2.63;;;;;;;;;;5040818;28;22066;-58
2024/02/08 11:57:53;;;;;;;3.58;2.70;;;;;;;;;;5041809;28;20037;-59
2024/02/08 12:00:18;;;;;;;;;;;;;;;;;;5040894;28;20052;-60
2024/02/08 12:02:47;;;;;;;4.10;2.63;;;;;;;;;;5040654;28;19925;-60
2024/02/08 12:05:15;;;;;;;4.95;2.90;;;;;;;;;;5043330;28;20344;-60
2024/02/08 12:07:45;;;;;;;3.75;2.72;;;;;;;;;;5041899;28;20103;-59
2024/02/08 12:10:13;;;;;;;4.63;2.88;;;;;;;;;;5043562;28;20037;-58
2024/02/08 12:12:41;;;;;;;4.05;2.83;;;;;;;;;;5044428;28;20040;-58
2024/02/08 12:15:07;;;;;;;4.40;2.78;;;;;;;;;;5021699;28;20406;-59
2024/02/08 12:17:32;;;;;;;3.78;2.78;;;;;;;;;;5041996;28;20048;-59
2024/02/08 12:20:00;;;;;;;4.32;2.88;;;;;;;;;;5042283;28;20160;-59
2024/02/08 12:22:26;;;;;;;6.35;2.97;;;;;;;;;;5040883;28;20029;-59
2024/02/08 12:25:00;;;;;;;4.78;2.70;;;;;;;;;;5040802;28;20768;-61
2024/02/08 12:27:28;;;;;;;4.03;2.58;;;;;;;;;;5043096;28;20054;-59
2024/02/08 12:29:56;;;;;;;4.15;2.88;;;;;;;;;;5041620;28;20060;-59
2024/02/08 12:32:27;;;;;;;4.40;2.80;;;;;;;;;;5040590;28;20033;-59
2024/02/08 12:34:54;;;;;;;4.85;2.60;;;;;;;;;;5040140;28;20025;-58
2024/02/08 12:37:19;;;;;;;16.27;3.13;;;;;;;;;;5041420;28;20071;-58
2024/02/08 12:39:44;;;;;;;4.65;2.72;;;;;;;;;;5039186;28;20570;-59
2024/02/08 12:42:13;;;;;;;5.78;2.88;;;;;;;;;;5037025;28;20021;-59
2024/02/08 12:44:39;;;;;;;3.80;2.75;;;;;;;;;;5038507;28;20032;-59
2024/02/08 12:47:06;;;;;;;4.00;2.50;;;;;;;;;;5038974;28;20029;-58
2024/02/08 12:49:34;;;;;;;3.88;2.50;;;;;;;;;;5023953;28;20032;-58
2024/02/08 12:52:03;;;;;;;5.75;2.70;;;;;;;;;;5024343;28;20102;-58
2024/02/08 12:54:28;;;;;;;4.90;2.72;;;;;;;;;;5038397;28;20060;-59
2024/02/08 12:57:07;;;;;;;5.10;2.80;;;;;;;;;;5037798;28;20056;-58
2024/02/08 12:59:33;;;;;;;3.80;2.85;;;;;;;;;;5040658;28;20091;-58
2024/02/08 13:02:08;;;;;;;10.48;2.70;;;;;;;;;;5036105;28;20418;-59
2024/02/08 13:04:34;;;;;;;3.92;2.70;;;;;;;;;;5037124;28;20094;-58
2024/02/08 13:06:59;;;;;;;4.15;2.40;;;;;;;;;;5036413;28;20061;-58
2024/02/08 13:09:35;;;;;;;5.53;2.60;;;;;;;;;;5034979;28;20064;-58
2024/02/08 13:12:17;;;;;;;4.47;2.22;;;;;;;;;;5038771;28;20051;-59
2024/02/08 13:14:48;;;;;;;4.93;2.28;;;;;;;;;;5036941;28;20053;-61
2024/02/08 13:17:20;;;;;;;4.97;2.30;;;;;;;;;;5035831;28;20095;-59
2024/02/08 13:19:49;;;;;;;4.38;2.33;;;;;;;;;;5038497;28;20045;-59
2024/02/08 13:22:21;;;;;;;4.57;2.03;;;;;;;;;;5035932;28;20037;-58
2024/02/08 13:24:55;;;;;;;5.00;2.08;;;;;;;;;;5024669;28;20044;-59
2024/02/08 13:27:24;;;;;;;5.40;2.15;;;;;;;;;;5037183;28;20107;-59
2024/02/08 13:29:52;;;;;;;3.83;2.07;;;;;;;;;;5035591;28;20034;-58
2024/02/08 13:32:18;;;;;;;4.65;2.22;;;;;;;;;;5036428;28;20025;-59
2024/02/08 13:34:43;;;;;;;6.43;2.30;;;;;;;;;;5036798;28;20040;-60
2024/02/08 13:37:15;;;;;;;4.82;2.20;;;;;;;;;;5036004;28;20185;-59
2024/02/08 13:39:42;;;;;;;3.03;1.70;;;;;;;;;;5038271;28;20180;-59
2024/02/08 13:42:09;;;;;;;3.88;2.08;;;;;;;;;;5037886;28;20037;-58
2024/02/08 13:44:35;;;;;;;7.07;2.28;;;;;;;;;;5037880;28;21989;-58
2024/02/08 13:47:00;;;;;;;3.00;1.98;;;;;;;;;;5037848;28;20052;-59
2024/02/08 13:49:25;;;;;;;3.33;1.83;;;;;;;;;;5039154;28;20087;-59
2024/02/08 13:51:51;;;;;;;6.80;1.95;;;;;;;;;;5036019;28;20444;-60
2024/02/08 13:54:16;;;;;;;4.63;1.95;;;;;;;;;;5035055;28;20049;-61
2024/02/08 13:56:41;;;;;;;4.00;1.70;;;;;;;;;;5035104;28;20025;-60
2024/02/08 13:59:07;;;;;;;4.72;1.80;;;;;;;;;;5030248;28;20044;-61
2024/02/08 14:01:32;;;;;;;4.07;1.83;;;;;;;;;;5034912;28;20037;-60
2024/02/08 14:03:58;;;;;;;4.15;1.90;;;;;;;;;;5033512;28;20479;-60
2024/02/08 14:06:25;;;;;;;5.88;1.90;;;;;;;;;;5032288;28;20044;-60
2024/02/08 14:08:54;;;;;;;3.60;1.80;;;;;;;;;;5032987;28;20472;-61
2024/02/08 14:11:21;;;;;;;4.28;1.98;;;;;;;;;;5033180;28;20033;-62
2024/02/08 14:13:49;;;;;;;3.40;1.75;;;;;;;;;;5037084;28;20029;-61
2024/02/08 14:16:15;;;;;;;5.28;1.80;;;;;;;;;;5033560;28;20081;-61
2024/02/08 14:18:48;;;;;;;4.03;1.70;;;;;;;;;;5036942;28;20584;-63
2024/02/08 14:21:19;;;;;;;5.80;1.60;;;;;;;;;;5035643;28;21640;-62
2024/02/08 14:23:48;;;;;;;3.55;1.70;;;;;;;;;;5037340;28;20029;-63
2024/02/08 14:28:45;;;;;;;4.35;1.52;;;;;;;;;;5038596;28;20291;-65
2024/02/08 14:31:11;;;;;;;4.50;1.60;;;;;;;;;;5039581;28;20043;-61
2024/02/08 14:33:37;;;;;;;4.30;1.80;;;;;;;;;;5039859;28;20086;-61
2024/02/08 14:36:09;;;;;;;2.88;1.60;;;;;;;;;;5040433;28;20522;-62
2024/02/08 14:38:45;;;;;;;3.78;1.60;;;;;;;;;;5039515;28;20497;-61
2024/02/08 14:41:26;;;;;;;3.85;1.67;;;;;;;;;;5035571;28;20040;-61
2024/02/08 14:43:54;;;;;;;4.22;1.70;;;;;;;;;;5028443;28;20040;-62
2024/02/08 14:46:21;;;;;;;3.33;1.83;;;;;;;;;;5037099;28;20041;-61
2024/02/08 14:48:51;;;;;;;3.55;1.80;;;;;;;;;;5038818;28;20037;-60
2024/02/08 14:53:44;;;;;;;7.70;2.03;;;;;;;;;;5047979;28;20521;-61
2024/02/08 14:56:10;;;;;;;4.25;1.80;;;;;;;;;;5048106;28;20044;-61
2024/02/08 14:58:40;;;;;;;4.72;1.88;;;;;;;;;;5029964;28;20037;-61
2024/02/08 15:01:09;;;;;;;4.40;1.83;;;;;;;;;;5046892;28;20048;-61
2024/02/08 15:03:43;;;;;;;5.88;2.55;;;;;;;;;;5047232;28;20043;-61
2024/02/08 15:11:50;;;;;;;7.15;3.03;;;;;;;;;;5060504;28;20076;-61
2024/02/08 15:14:18;;;;;;;9.25;3.00;;;;;;;;;;5047445;28;20043;-61
2024/02/08 15:16:44;;;;;;;8.25;2.63;;;;;;;;;;5029787;28;20073;-61
2024/02/08 15:19:10;;;;;;;9.20;3.33;;;;;;;;;;5047942;28;20025;-61
2024/02/08 15:21:35;;;;;;;11.80;3.45;;;;;;;;;;5046829;28;20102;-61
2024/02/08 15:26:37;;;;;;;7.78;3.25;;;;;;;;;;5046884;28;20112;-61
2024/02/08 15:29:04;;;;;;;7.40;3.63;;;;;;;;;;5047356;28;20025;-61
2024/02/08 15:36:47;;;;;;;7.68;3.47;;;;;;;;;;5047309;28;20063;-61
2024/02/08 15:40:09;;;;;;;10.13;3.90;;;;;;;;;;5044895;28;20025;-61
2024/02/08 15:42:12;;;;;;;7.68;3.80;;;;;;;;;;5038103;28;20554;-61
2024/02/08 15:44:45;;;;;;;9.90;4.43;;;;;;;;;;5047483;28;20037;-60
2024/02/08 15:47:15;;;;;;;11.13;4.28;;;;;;;;;;5045439;28;20037;-61
2024/02/08 15:49:44;;;;;;;8.63;4.07;;;;;;;;;;5047533;28;20056;-60
2024/02/08 15:52:14;;;;;;;7.93;3.83;;;;;;;;;;5041447;28;20088;-61
2024/02/08 15:54:43;;;;;;;8.75;3.60;;;;;;;;;;5043107;28;20082;-61
2024/02/08 15:57:12;;;;;;;7.50;3.72;;;;;;;;;;5046935;28;20041;-61
2024/02/08 15:59:37;;;;;;;8.98;3.95;;;;;;;;;;5047836;28;20036;-61
2024/02/08 16:02:06;;;;;;;10.27;4.15;;;;;;;;;;5047411;28;20474;-61
2024/02/08 16:04:44;;;;;;;8.05;3.58;;;;;;;;;;5047317;28;20037;-61
2024/02/08 16:07:16;;;;;;;10.27;3.67;;;;;;;;;;5046600;28;20048;-61
2024/02/08 16:09:57;;;;;;;10.02;3.53;;;;;;;;;;5066335;28;20029;-61
2024/02/08 16:14:59;;;;;;;10.32;4.22;;;;;;;;;;5047856;28;20645;-61
2024/02/08 16:19:57;;;;;;;13.70;4.88;;;;;;;;;;5051241;28;20040;-61
2024/02/08 16:22:28;;;;;;;10.48;4.97;;;;;;;;;;5050732;28;20414;-60
2024/02/08 16:24:56;;;;;;;10.77;5.25;;;;;;;;;;5051111;28;20032;-60
2024/02/08 16:27:22;;;;;;;11.27;5.47;;;;;;;;;;5057036;28;20029;-61
2024/02/08 16:30:07;;;;;;;12.63;5.38;;;;;;;;;;5045299;28;20036;-61
2024/02/08 16:32:33;;;;;;;13.88;5.32;;;;;;;;;;5048273;28;20041;-61
2024/02/08 16:35:14;;;;;;;12.40;6.05;;;;;;;;;;5032346;28;20035;-61
2024/02/08 16:37:51;;;;;;;13.45;5.70;;;;;;;;;;5025046;28;20294;-61
2024/02/08 16:40:28;;;;;;;10.77;5.13;;;;;;;;;;5050741;28;20528;-61
2024/02/08 16:43:10;;;;;;;13.45;5.60;;;;;;;;;;5050756;28;20033;-60
2024/02/08 16:45:44;;;;;;;13.85;5.72;;;;;;;;;;5051013;28;20029;-61
2024/02/08 16:48:14;;;;;;;12.02;5.63;;;;;;;;;;5050633;28;20073;-62
2024/02/08 16:50:45;;;;;;;12.20;6.28;;;;;;;;;;5042845;28;20076;-62
2024/02/08 16:53:14;;;;;;;12.48;6.32;;;;;;;;;;5048874;28;20033;-61
2024/02/08 16:55:47;;;;;;;15.52;6.53;;;;;;;;;;5050197;28;20519;-62
2024/02/08 16:58:31;;;;;;;12.85;6.50;;;;;;;;;;5050403;28;20091;-63
2024/02/08 17:01:02;;;;;;;14.15;6.47;;;;;;;;;;5043563;28;20045;-62
2024/02/08 17:03:50;;;;;;;14.73;6.32;;;;;;;;;;5047987;28;20033;-60
2024/02/08 17:06:26;;;;;;;15.93;6.38;;;;;;;;;;5045607;28;20041;-62
2024/02/08 17:09:15;;;;;;;16.95;6.35;;;;;;;;;;5043141;28;20063;-65
2024/02/08 17:11:41;;;;;;;13.88;5.85;;;;;;;;;;5040562;28;20067;-63
2024/02/08 17:14:17;;;;;;;14.27;6.45;;;;;;;;;;5040424;28;20545;-60
2024/02/08 17:16:45;;;;;;;12.73;5.60;;;;;;;;;;5043530;28;20040;-60
2024/02/08 17:19:40;;;;;;;15.65;6.28;;;;;;;;;;5045605;28;20040;-59
2024/02/08 17:27:18;;;;;;;10.52;5.28;;;;;;;;;;5045275;28;20538;-61
2024/02/08 17:29:50;;;;;;;9.65;5.15;;;;;;;;;;5045583;28;20037;-60
2024/02/08 17:32:24;;;;;;;12.93;5.03;;;;;;;;;;5049772;28;20030;-60